Time;durP1;ratioP1;P1;durP2;ratioP2;P2;SDS_P1;SDS_P2;PMS_P1;PMS_P2;Temp;Humidity;BMP_temperature;BMP_pressure;BME280_temperature;BME280_humidity;BME280_pressure;Samples;Min_cycle;Max_cycle;Signal;HPM_P1;HPM_P2
2022/06/17 00:01:51;;;;;;;7.35;4.00;;;12.10;99.90;;;;;;5070210;28;20370;-87
2022/06/17 00:04:18;;;;;;;10.70;4.87;;;12.20;99.90;;;;;;5070380;28;20411;-84
2022/06/17 00:06:52;;;;;;;8.15;4.50;;;12.40;99.90;;;;;;5070263;28;20765;-85
2022/06/17 00:09:22;;;;;;;4.32;3.00;;;12.40;99.90;;;;;;5070446;28;20465;-86
2022/06/17 00:11:50;;;;;;;3.23;2.43;;;12.50;99.90;;;;;;5070490;28;20367;-88
2022/06/17 00:14:23;;;;;;;4.38;2.40;;;12.80;99.90;;;;;;5069920;28;20892;-87
2022/06/17 00:16:50;;;;;;;3.58;2.80;;;12.90;99.90;;;;;;5069858;28;20818;-87
2022/06/17 00:19:19;;;;;;;2.60;2.40;;;13.10;99.90;;;;;;5069984;28;20381;-86
2022/06/17 00:21:49;;;;;;;2.35;1.30;;;13.30;99.90;;;;;;5069692;28;20381;-84
2022/06/17 00:24:26;;;;;;;1.27;1.17;;;13.50;99.90;;;;;;5069801;28;20416;-83
2022/06/17 00:26:55;;;;;;;1.55;1.10;;;13.60;99.90;;;;;;5069799;28;20373;-86
2022/06/17 00:29:26;;;;;;;1.53;1.00;;;14.00;99.90;;;;;;5069895;28;20915;-85
2022/06/17 00:31:53;;;;;;;1.30;1.20;;;14.10;99.90;;;;;;5069820;28;20453;-84
2022/06/17 00:34:20;;;;;;;1.30;0.88;;;14.30;99.90;;;;;;5069617;28;20386;-83
2022/06/17 00:36:47;;;;;;;1.43;1.00;;;14.40;99.90;;;;;;5068954;28;20997;-83
2022/06/17 00:39:23;;;;;;;1.40;0.90;;;14.50;99.90;;;;;;5068954;28;20459;-84
2022/06/17 00:41:53;;;;;;;0.98;0.88;;;14.50;99.90;;;;;;5069712;28;20441;-88
2022/06/17 00:44:39;;;;;;;1.43;0.83;;;14.50;99.90;;;;;;5069619;28;20378;-83
2022/06/17 00:47:20;;;;;;;0.93;0.70;;;14.70;99.90;;;;;;5069461;28;20370;-84
2022/06/17 00:49:55;;;;;;;1.90;0.80;;;14.80;99.90;;;;;;5069468;28;20413;-87
2022/06/17 00:52:50;;;;;;;1.10;0.73;;;14.90;99.90;;;;;;5069809;28;20456;-85
2022/06/17 00:55:35;;;;;;;1.13;0.60;;;15.00;99.90;;;;;;5068963;28;20382;-83
2022/06/17 00:58:25;;;;;;;1.85;0.65;;;15.00;99.90;;;;;;5069673;28;20397;-83
2022/06/17 01:01:00;;;;;;;2.55;0.80;;;15.10;99.90;;;;;;5069231;28;20842;-83
2022/06/17 01:03:33;;;;;;;1.60;0.80;;;15.20;99.90;;;;;;5069008;28;20467;-86
2022/06/17 01:06:08;;;;;;;2.85;0.90;;;15.30;99.90;;;;;;5069291;28;20370;-86
2022/06/17 01:11:30;;;;;;;0.70;0.45;;;15.40;99.90;;;;;;5069249;28;20895;-83
2022/06/17 01:13:59;;;;;;;1.00;0.50;;;15.60;99.90;;;;;;5069051;28;20386;-86
2022/06/17 01:16:34;;;;;;;2.07;0.43;;;15.80;99.90;;;;;;5068756;28;20370;-83
2022/06/17 01:19:33;;;;;;;0.40;0.20;;;16.00;99.90;;;;;;5070587;28;20461;-84
2022/06/17 01:22:06;;;;;;;3.92;1.10;;;16.20;99.20;;;;;;5027221;28;20385;-85
2022/06/17 01:24:35;;;;;;;3.20;0.70;;;16.40;98.50;;;;;;5027268;28;20854;-84
2022/06/17 01:27:02;;;;;;;0.93;0.30;;;16.50;98.10;;;;;;5026998;28;20381;-84
2022/06/17 01:29:30;;;;;;;1.92;0.98;;;16.60;97.40;;;;;;5026621;28;20865;-85
2022/06/17 01:31:58;;;;;;;1.00;0.70;;;16.70;96.90;;;;;;5026471;28;20448;-86
2022/06/17 01:34:25;;;;;;;0.75;0.30;;;16.70;96.80;;;;;;5026727;28;20385;-86
2022/06/17 01:36:54;;;;;;;2.17;0.20;;;16.80;97.20;;;;;;5026572;28;20540;-84
2022/06/17 01:39:21;;;;;;;0.65;0.25;;;17.00;96.00;;;;;;5026658;28;20390;-86
2022/06/17 01:41:49;;;;;;;3.83;0.30;;;17.00;96.10;;;;;;5026701;28;20495;-86
2022/06/17 01:44:22;;;;;;;1.55;0.20;;;16.90;95.40;;;;;;5026616;28;20411;-83
2022/06/17 01:46:54;;;;;;;1.00;0.30;;;17.00;95.20;;;;;;5027080;28;20473;-87
2022/06/17 01:49:24;;;;;;;1.75;0.30;;;17.10;95.10;;;;;;5026397;28;20615;-85
2022/06/17 01:52:23;;;;;;;1.55;0.30;;;17.10;95.10;;;;;;5026641;28;20418;-83
2022/06/17 01:54:58;;;;;;;0.32;0.20;;;17.10;93.40;;;;;;5026568;28;20443;-87
2022/06/17 01:57:35;;;;;;;3.13;0.65;;;17.00;93.70;;;;;;5027005;28;20444;-86
2022/06/17 02:00:10;;;;;;;7.22;0.65;;;17.10;93.60;;;;;;5068278;28;20375;-85
2022/06/17 02:02:40;;;;;;;1.60;0.30;;;17.20;93.70;;;;;;5068299;28;20774;-86
2022/06/17 02:05:11;;;;;;;1.25;0.40;;;17.30;92.20;;;;;;5067925;28;20474;-86
2022/06/17 02:07:58;;;;;;;1.33;0.30;;;17.40;91.80;;;;;;5068662;28;20400;-85
2022/06/17 02:10:39;;;;;;;0.40;0.23;;;17.40;91.80;;;;;;5068590;28;20448;-84
2022/06/17 02:13:08;;;;;;;0.95;0.40;;;17.50;90.50;;;;;;5067311;28;20386;-85
2022/06/17 02:15:35;;;;;;;6.05;0.60;;;17.50;90.80;;;;;;5068124;28;20370;-86
2022/06/17 02:18:06;;;;;;;4.68;0.43;;;17.60;90.50;;;;;;5068348;28;20543;-86
2022/06/17 02:20:33;;;;;;;3.92;0.50;;;17.60;89.60;;;;;;5068094;28;20358;-84
2022/06/17 02:23:02;;;;;;;4.90;0.50;;;17.60;90.10;;;;;;5068011;28;20420;-85
2022/06/17 02:25:35;;;;;;;6.13;0.57;;;17.60;89.60;;;;;;5068210;28;20373;-85
2022/06/17 02:28:02;;;;;;;0.90;0.30;;;17.70;89.60;;;;;;5068094;28;20407;-86
2022/06/17 02:30:31;;;;;;;3.57;0.30;;;17.60;88.40;;;;;;5068270;28;20373;-85
2022/06/17 02:33:02;;;;;;;0.85;0.30;;;17.60;88.90;;;;;;5068133;28;20880;-83
2022/06/17 02:35:33;;;;;;;4.15;0.45;;;17.60;89.10;;;;;;5067882;28;20432;-84
2022/06/17 02:38:00;;;;;;;2.35;0.40;;;17.60;88.90;;;;;;5068306;28;20393;-86
2022/06/17 02:40:37;;;;;;;1.47;0.40;;;17.50;89.00;;;;;;5067959;28;20370;-83
2022/06/17 02:43:13;;;;;;;1.42;0.30;;;17.70;89.60;;;;;;5067938;28;20363;-86
2022/06/17 02:45:45;;;;;;;1.00;0.30;;;17.80;88.10;;;;;;5068150;28;20362;-84
2022/06/17 02:48:36;;;;;;;0.40;0.20;;;17.80;86.70;;;;;;5068267;28;20366;-86
2022/06/17 02:51:03;;;;;;;0.40;0.28;;;17.80;87.40;;;;;;5067945;28;20380;-84
2022/06/17 02:53:35;;;;;;;1.20;0.30;;;17.90;87.20;;;;;;5067961;28;20381;-86
2022/06/17 02:56:08;;;;;;;0.88;0.30;;;17.90;87.40;;;;;;5068110;28;20373;-87
2022/06/17 02:59:11;;;;;;;0.77;0.40;;;17.80;86.60;;;;;;5068056;28;20404;-85
2022/06/17 03:01:41;;;;;;;2.80;0.40;;;17.90;86.60;;;;;;5069923;28;20365;-87
2022/06/17 03:04:27;;;;;;;1.90;0.50;;;18.50;86.30;;;;;;5071382;28;20465;-86
2022/06/17 03:06:54;;;;;;;4.10;0.50;;;17.90;86.20;;;;;;5071663;28;20370;-86
2022/06/17 03:09:28;;;;;;;1.23;0.40;;;18.00;86.50;;;;;;5071318;28;20377;-84
2022/06/17 03:12:12;;;;;;;3.83;0.90;;;18.00;85.40;;;;;;5071122;28;20423;-87
2022/06/17 03:14:48;;;;;;;2.25;0.77;;;18.00;86.00;;;;;;5071094;28;20366;-86
2022/06/17 03:17:20;;;;;;;1.20;0.50;;;18.00;86.40;;;;;;5071092;28;20401;-85
2022/06/17 03:19:48;;;;;;;0.63;0.50;;;18.00;86.20;;;;;;5071470;28;20376;-84
2022/06/17 03:22:15;;;;;;;1.23;0.30;;;18.00;84.70;;;;;;5070939;28;20378;-86
2022/06/17 03:24:59;;;;;;;3.08;0.88;;;17.90;85.40;;;;;;5071401;28;20405;-85
2022/06/17 03:27:49;;;;;;;2.45;1.00;;;18.00;86.20;;;;;;5070846;28;20423;-86
2022/06/17 03:30:29;;;;;;;0.52;0.30;;;18.20;87.50;;;;;;5071077;28;20868;-85
2022/06/17 03:33:13;;;;;;;0.85;0.25;;;18.10;84.70;;;;;;5070794;28;20381;-85
2022/06/17 03:35:44;;;;;;;1.60;0.40;;;18.10;84.40;;;;;;5070934;28;20406;-84
2022/06/17 03:38:26;;;;;;;1.42;0.40;;;18.10;85.70;;;;;;5070694;28;20502;-87
2022/06/17 03:40:58;;;;;;;0.77;0.40;;;18.20;85.00;;;;;;5071181;28;20428;-85
2022/06/17 03:43:40;;;;;;;0.47;0.30;;;18.20;84.60;;;;;;5070649;28;20362;-85
2022/06/17 03:46:09;;;;;;;1.00;0.40;;;18.10;83.80;;;;;;5070596;28;20494;-87
2022/06/17 03:48:39;;;;;;;0.20;0.20;;;18.10;85.00;;;;;;5070427;28;20374;-87
2022/06/17 03:51:23;;;;;;;0.73;0.30;;;18.00;85.90;;;;;;5070717;28;20917;-87
2022/06/17 03:53:51;;;;;;;0.88;0.30;;;18.10;84.40;;;;;;5070468;28;20378;-84
2022/06/17 03:56:24;;;;;;;0.45;0.40;;;18.10;84.40;;;;;;5070673;28;20376;-87
2022/06/17 03:58:54;;;;;;;3.00;0.40;;;18.20;84.50;;;;;;5070339;28;20926;-83
2022/06/17 04:01:44;;;;;;;0.30;0.30;;;18.30;85.30;;;;;;5070627;28;20900;-85
2022/06/17 04:04:34;;;;;;;0.55;0.30;;;18.50;84.00;;;;;;5070222;28;20790;-84
2022/06/17 04:07:01;;;;;;;0.33;0.30;;;18.80;83.00;;;;;;5070451;28;20362;-84
2022/06/17 04:09:32;;;;;;;0.35;0.35;;;18.90;80.90;;;;;;5070599;28;20456;-88
2022/06/17 04:12:13;;;;;;;0.55;0.30;;;18.90;80.10;;;;;;5069980;28;20850;-86
2022/06/17 04:15:13;;;;;;;0.47;0.40;;;18.80;81.20;;;;;;5070593;28;20896;-85
2022/06/17 04:17:44;;;;;;;2.30;0.40;;;18.70;80.30;;;;;;5068534;28;20488;-83
2022/06/17 04:20:29;;;;;;;0.70;0.35;;;18.70;82.00;;;;;;5070048;28;20370;-85
2022/06/17 04:23:18;;;;;;;0.63;0.30;;;18.70;81.90;;;;;;5070157;28;20367;-86
2022/06/17 04:26:15;;;;;;;1.00;0.30;;;18.70;81.10;;;;;;5069345;28;20386;-84
2022/06/17 04:28:52;;;;;;;0.52;0.40;;;18.80;81.10;;;;;;5069774;28;20370;-85
2022/06/17 04:31:26;;;;;;;0.30;0.30;;;18.90;80.90;;;;;;5069584;28;20392;-85
2022/06/17 04:34:07;;;;;;;0.90;0.30;;;19.10;81.70;;;;;;5069677;28;20381;-85
2022/06/17 04:36:37;;;;;;;0.50;0.28;;;19.30;79.40;;;;;;5069356;28;20402;-87
2022/06/17 04:39:42;;;;;;;0.75;0.30;;;19.60;78.60;;;;;;5069833;28;20861;-87
2022/06/17 04:42:20;;;;;;;0.93;0.22;;;19.50;79.00;;;;;;5027452;28;20378;-88
2022/06/17 04:44:50;;;;;;;1.45;0.20;;;19.30;79.60;;;;;;5028084;28;20879;-87
2022/06/17 04:47:20;;;;;;;0.30;0.30;;;19.30;78.00;;;;;;5027759;28;20387;-86
2022/06/17 04:50:12;;;;;;;0.30;0.30;;;19.20;78.70;;;;;;5027400;28;20945;-89
2022/06/17 04:52:44;;;;;;;0.40;0.20;;;19.20;79.10;;;;;;5027751;28;20373;-87
2022/06/17 04:55:32;;;;;;;0.88;0.20;;;19.20;78.50;;;;;;5027333;28;20389;-84
2022/06/17 04:58:00;;;;;;;0.85;0.20;;;19.40;77.80;;;;;;5027400;28;20444;-84
2022/06/17 05:00:28;;;;;;;0.70;0.30;;;19.30;77.80;;;;;;5027337;28;20398;-86
2022/06/17 05:02:57;;;;;;;0.30;0.30;;;19.00;78.10;;;;;;5053428;22;20471;-83
2022/06/17 05:05:36;;;;;;;0.40;0.20;;;18.80;78.50;;;;;;5087356;28;20384;-85
2022/06/17 05:08:06;;;;;;;1.23;0.30;;;18.70;79.80;;;;;;5069755;28;20376;-86
2022/06/17 05:10:40;;;;;;;21.20;18.88;;;18.80;79.50;;;;;;5079377;28;20374;-84
2022/06/17 05:13:26;;;;;;;1.25;0.68;;;18.80;79.50;;;;;;5088560;28;20840;-84
2022/06/17 05:15:54;;;;;;;1.35;0.30;;;18.80;79.30;;;;;;5087603;28;20918;-85
2022/06/17 05:18:21;;;;;;;1.80;0.30;;;18.90;78.60;;;;;;5086882;28;20460;-85
2022/06/17 05:20:49;;;;;;;0.13;0.13;;;19.10;77.30;;;;;;5077647;28;20378;-86
2022/06/17 05:23:17;;;;;;;0.30;0.20;;;19.20;77.40;;;;;;5082202;28;20430;-84
2022/06/17 05:25:49;;;;;;;0.70;0.20;;;19.20;76.60;;;;;;5082688;28;20442;-86
2022/06/17 05:28:21;;;;;;;0.20;0.20;;;19.00;75.60;;;;;;5077937;28;20372;-86
2022/06/17 05:30:53;;;;;;;0.40;0.20;;;18.80;76.60;;;;;;5087048;28;20720;-86
2022/06/17 05:33:21;;;;;;;0.25;0.20;;;18.70;78.10;;;;;;5086928;28;20377;-85
2022/06/17 05:35:49;;;;;;;0.73;0.20;;;18.70;77.60;;;;;;5086753;28;20376;-86
2022/06/17 05:38:16;;;;;;;1.30;0.40;;;18.70;79.10;;;;;;5087045;28;20407;-87
2022/06/17 05:40:43;;;;;;;3.85;0.70;;;18.70;79.50;;;;;;5072574;28;20362;-88
2022/06/17 05:43:12;;;;;;;6.20;0.70;;;18.60;79.20;;;;;;5086943;28;20384;-84
2022/06/17 05:45:39;;;;;;;6.60;0.90;;;18.60;78.80;;;;;;5087019;28;20832;-86
2022/06/17 05:48:07;;;;;;;13.90;1.20;;;18.40;79.20;;;;;;5087799;28;20404;-86
2022/06/17 05:50:36;;;;;;;11.88;1.35;;;18.20;79.80;;;;;;5090496;28;20364;-88
2022/06/17 05:53:06;;;;;;;5.32;0.68;;;18.10;80.70;;;;;;5082689;28;20770;-86
2022/06/17 05:55:35;;;;;;;8.23;0.88;;;17.90;81.20;;;;;;5073714;28;20384;-84
2022/06/17 05:58:04;;;;;;;9.20;1.20;;;17.70;82.30;;;;;;5082103;28;20410;-83
2022/06/17 06:00:32;;;;;;;6.82;1.10;;;17.60;82.90;;;;;;5069896;28;20446;-84
2022/06/17 06:03:02;;;;;;;5.20;0.90;;;17.50;83.60;;;;;;5089171;28;20396;-86
2022/06/17 06:05:32;;;;;;;9.60;1.30;;;17.50;83.80;;;;;;5087234;28;20373;-90
2022/06/17 06:07:59;;;;;;;14.20;1.58;;;17.50;83.90;;;;;;5076930;28;20380;-86
2022/06/17 06:10:27;;;;;;;6.82;1.40;;;17.50;84.00;;;;;;5086984;28;20373;-86
2022/06/17 06:12:57;;;;;;;8.70;1.30;;;17.50;84.90;;;;;;5072585;28;20380;-86
2022/06/17 06:15:39;;;;;;;9.75;1.50;;;17.40;84.10;;;;;;5068397;28;20387;-85
2022/06/17 06:18:19;;;;;;;11.50;1.63;;;17.40;84.50;;;;;;5072119;28;20801;-85
2022/06/17 06:20:48;;;;;;;9.97;1.50;;;17.40;84.80;;;;;;5087073;28;20364;-86
2022/06/17 06:23:15;;;;;;;10.02;1.60;;;17.40;85.80;;;;;;5070401;28;20382;-88
2022/06/17 06:25:42;;;;;;;9.00;1.50;;;17.30;85.70;;;;;;5072270;28;20386;-84
2022/06/17 06:28:22;;;;;;;8.32;1.30;;;17.30;86.00;;;;;;5078963;28;20372;-85
2022/06/17 06:31:17;;;;;;;3.92;1.10;;;17.20;85.90;;;;;;5073337;28;20388;-84
2022/06/17 06:33:44;;;;;;;5.03;1.00;;;17.10;85.50;;;;;;5079424;28;20474;-86
2022/06/17 06:36:11;;;;;;;5.18;0.90;;;17.00;85.50;;;;;;5077211;28;20883;-84
2022/06/17 06:38:38;;;;;;;4.53;1.15;;;16.90;86.20;;;;;;5083727;28;20793;-88
2022/06/17 06:41:05;;;;;;;5.50;1.13;;;16.70;87.10;;;;;;5090494;28;20372;-88
2022/06/17 06:43:34;;;;;;;11.27;1.40;;;16.50;88.00;;;;;;5074043;28;20392;-90
2022/06/17 06:46:08;;;;;;;7.00;1.20;;;16.20;88.90;;;;;;5072107;28;20391;-83
2022/06/17 06:48:35;;;;;;;3.55;1.10;;;16.00;90.10;;;;;;5090110;28;20918;-83
2022/06/17 06:51:02;;;;;;;6.60;1.38;;;15.80;90.80;;;;;;5064122;28;20420;-85
2022/06/17 06:53:30;;;;;;;11.82;1.58;;;15.70;91.30;;;;;;5079944;28;20391;-83
2022/06/17 06:55:57;;;;;;;9.00;1.55;;;15.50;91.60;;;;;;5070708;28;20476;-84
2022/06/17 06:58:26;;;;;;;10.15;1.60;;;15.40;92.00;;;;;;5076806;28;20404;-82
2022/06/17 07:00:56;;;;;;;8.93;1.77;;;15.40;92.10;;;;;;5080621;28;20472;-83
2022/06/17 07:03:25;;;;;;;16.58;1.77;;;15.40;92.40;;;;;;5089871;28;20486;-87
2022/06/17 07:06:04;;;;;;;13.32;1.52;;;15.30;92.40;;;;;;5089889;28;20375;-84
2022/06/17 07:08:35;;;;;;;17.27;1.80;;;15.40;92.30;;;;;;5062729;28;20876;-84
2022/06/17 07:11:05;;;;;;;9.65;1.35;;;15.40;92.20;;;;;;5082664;28;20375;-83
2022/06/17 07:13:32;;;;;;;9.95;1.40;;;15.40;92.00;;;;;;5088256;28;20369;-84
2022/06/17 07:16:01;;;;;;;9.53;1.23;;;15.50;92.10;;;;;;5089129;28;20921;-83
2022/06/17 07:18:34;;;;;;;5.70;1.25;;;15.40;92.10;;;;;;5072034;28;20441;-84
2022/06/17 07:21:05;;;;;;;10.73;1.38;;;15.50;92.20;;;;;;5063831;28;20446;-83
2022/06/17 07:23:41;;;;;;;9.60;1.60;;;15.50;92.10;;;;;;5070683;28;20710;-84
2022/06/17 07:26:20;;;;;;;6.25;1.40;;;15.50;92.00;;;;;;5082070;28;20493;-84
2022/06/17 07:28:50;;;;;;;3.50;1.13;;;15.60;92.10;;;;;;5047791;28;20390;-85
2022/06/17 07:31:17;;;;;;;7.22;1.60;;;15.60;92.00;;;;;;5080050;28;20382;-84
2022/06/17 07:33:45;;;;;;;4.10;1.70;;;15.80;92.20;;;;;;5065215;28;20484;-87
2022/06/17 07:41:50;;;;;;;3.53;1.52;;;15.70;92.30;;;;;;5031317;28;20525;-85
2022/06/17 07:44:18;;;;;;;4.30;2.35;;;15.60;92.60;;;;;;5022307;28;20893;-84
2022/06/17 07:46:46;;;;;;;4.75;3.20;;;15.50;93.00;;;;;;5022321;28;20875;-84
2022/06/17 07:49:13;;;;;;;5.45;1.80;;;15.20;93.80;;;;;;5024552;28;20477;-83
2022/06/17 07:51:41;;;;;;;4.03;1.80;;;15.10;94.60;;;;;;5016039;28;20408;-87
2022/06/17 07:54:08;;;;;;;4.50;2.30;;;15.00;95.30;;;;;;5046519;28;20896;-87
2022/06/17 07:56:35;;;;;;;5.05;1.92;;;14.80;95.80;;;;;;5046165;28;20491;-84
2022/06/17 07:59:07;;;;;;;5.30;1.57;;;14.60;96.60;;;;;;5045993;28;20453;-84
2022/06/17 08:01:34;;;;;;;4.05;1.50;;;14.50;97.40;;;;;;5038713;28;20395;-86
2022/06/17 08:04:01;;;;;;;4.55;1.98;;;14.40;98.20;;;;;;5044493;28;20546;-84
2022/06/17 08:06:28;;;;;;;3.55;1.70;;;14.20;98.60;;;;;;5040418;28;20910;-84
2022/06/17 08:08:55;;;;;;;5.15;1.88;;;14.10;99.30;;;;;;5026467;28;20903;-84
2022/06/17 08:11:24;;;;;;;9.50;2.15;;;14.00;99.90;;;;;;5035871;28;20392;-84
2022/06/17 08:13:51;;;;;;;14.17;2.23;;;13.90;99.90;;;;;;5023875;28;20408;-84
2022/06/17 08:16:18;;;;;;;10.65;1.98;;;13.80;99.90;;;;;;5024494;28;20385;-84
2022/06/17 08:18:45;;;;;;;12.13;3.90;;;13.70;99.90;;;;;;5038037;28;20418;-82
2022/06/17 08:21:13;;;;;;;11.60;7.03;;;13.70;99.90;;;;;;5041522;28;20437;-83
2022/06/17 08:23:40;;;;;;;10.32;6.00;;;13.50;99.90;;;;;;5046654;28;20857;-85
2022/06/17 08:26:08;;;;;;;10.97;5.30;;;13.50;99.90;;;;;;5046009;28;20479;-81
2022/06/17 08:28:35;;;;;;;17.70;2.10;;;13.40;99.90;;;;;;5049601;28;20772;-92
2022/06/17 08:31:03;;;;;;;17.85;2.20;;;13.40;99.90;;;;;;5036376;28;20380;-89
2022/06/17 08:33:30;;;;;;;21.27;4.25;;;13.50;99.90;;;;;;5048890;28;20433;-86
2022/06/17 08:36:07;;;;;;;23.98;11.18;;;13.40;99.90;;;;;;5042124;28;20893;-86
2022/06/17 08:38:40;;;;;;;6.65;3.33;;;13.40;99.90;;;;;;5040240;28;20462;-84
2022/06/17 08:41:19;;;;;;;10.18;4.63;;;13.20;99.90;;;;;;5047269;28;20380;-84
2022/06/17 08:43:52;;;;;;;18.30;10.90;;;13.10;99.90;;;;;;5047782;28;20383;-84
2022/06/17 08:46:32;;;;;;;13.40;7.50;;;13.00;99.90;;;;;;5044598;28;20386;-85
2022/06/17 08:49:28;;;;;;;13.25;8.73;;;12.80;99.90;;;;;;5047627;28;20721;-84
2022/06/17 08:52:06;;;;;;;6.97;3.33;;;12.80;99.90;;;;;;4995741;28;20368;-84
2022/06/17 08:54:59;;;;;;;6.07;3.50;;;12.60;99.90;;;;;;5005712;28;20405;-84
2022/06/17 08:57:36;;;;;;;8.23;3.63;;;12.60;99.90;;;;;;5001870;28;20812;-83
2022/06/17 09:00:19;;;;;;;5.05;2.90;;;12.50;99.90;;;;;;5004269;28;20445;-84
2022/06/17 09:02:58;;;;;;;6.05;2.80;;;12.40;99.90;;;;;;4994115;28;20473;-84
2022/06/17 09:05:43;;;;;;;10.48;2.83;;;12.20;99.90;;;;;;5006185;28;20863;-86
2022/06/17 09:08:41;;;;;;;4.60;2.58;;;12.10;99.90;;;;;;5005917;28;20423;-86
2022/06/17 09:11:52;;;;;;;7.22;2.50;;;12.10;99.90;;;;;;5000162;28;20395;-85
2022/06/17 09:14:27;;;;;;;11.18;2.70;;;12.10;99.90;;;;;;4948303;29;20384;-85
2022/06/17 09:17:27;;;;;;;11.52;2.63;;;12.00;99.90;;;;;;4948063;29;20384;-85
2022/06/17 09:19:59;;;;;;;6.78;2.28;;;11.90;99.90;;;;;;4865080;29;20429;-85
2022/06/17 09:22:31;;;;;;;7.40;2.20;;;11.90;99.90;;;;;;4861519;29;20430;-86
2022/06/17 09:25:08;;;;;;;6.47;2.17;;;11.90;99.90;;;;;;4871205;29;20398;-84
2022/06/17 09:27:45;;;;;;;3.83;2.00;;;11.80;99.90;;;;;;4870330;29;20446;-84
2022/06/17 09:30:35;;;;;;;6.43;1.90;;;11.80;99.90;;;;;;4872039;29;20435;-85
2022/06/17 09:33:24;;;;;;;13.27;2.20;;;11.80;99.90;;;;;;4871676;29;20752;-85
2022/06/17 09:36:16;;;;;;;10.40;2.25;;;11.80;99.90;;;;;;4884189;29;20506;-84
2022/06/17 09:38:52;;;;;;;5.95;2.20;;;11.80;99.90;;;;;;4871310;29;20848;-85
2022/06/17 09:41:43;;;;;;;13.70;2.30;;;11.70;99.90;;;;;;4864560;29;20806;-85
2022/06/17 09:44:10;;;;;;;7.40;2.10;;;11.70;99.90;;;;;;4875328;29;20955;-85
2022/06/17 09:46:45;;;;;;;17.27;8.27;;;11.70;99.90;;;;;;4882443;29;20391;-83
2022/06/17 09:49:24;;;;;;;19.45;7.45;;;11.60;99.90;;;;;;4878810;29;21239;-85
2022/06/17 09:52:14;;;;;;;25.40;9.98;;;11.60;99.90;;;;;;4947820;28;20395;-85
2022/06/17 09:54:51;;;;;;;28.17;13.52;;;11.60;99.90;;;;;;4966269;28;20375;-86
2022/06/17 09:57:24;;;;;;;27.27;11.07;;;11.60;99.90;;;;;;5023255;28;20892;-86
2022/06/17 10:00:13;;;;;;;35.97;11.65;;;11.70;99.90;;;;;;5046696;28;20384;-85
2022/06/17 10:02:46;;;;;;;18.17;6.13;;;11.60;99.90;;;;;;4979233;28;20838;-84
2022/06/17 10:05:37;;;;;;;13.35;4.20;;;11.50;99.90;;;;;;4974712;28;20396;-86
2022/06/17 10:08:22;;;;;;;9.35;4.10;;;11.50;99.90;;;;;;4915826;29;20400;-84
2022/06/17 10:11:12;;;;;;;8.90;3.58;;;11.50;99.90;;;;;;4923401;29;20409;-84
2022/06/17 10:13:45;;;;;;;6.90;2.83;;;11.50;99.90;;;;;;4918951;29;20796;-86
2022/06/17 10:19:42;;;;;;;9.95;3.65;;;11.50;99.90;;;;;;4922258;29;20432;-85
2022/06/17 10:22:19;;;;;;;12.10;3.40;;;11.40;99.90;;;;;;4913639;29;20763;-85
2022/06/17 10:25:01;;;;;;;8.10;2.63;;;11.40;99.90;;;;;;4925779;29;20469;-85
2022/06/17 10:27:38;;;;;;;6.35;2.47;;;11.30;99.90;;;;;;4929475;29;20507;-83
2022/06/17 10:30:34;;;;;;;9.30;2.78;;;11.30;99.90;;;;;;4931256;29;20453;-86
2022/06/17 10:33:02;;;;;;;6.88;3.08;;;11.20;99.90;;;;;;4931142;29;20385;-84
2022/06/17 10:35:33;;;;;;;10.82;4.78;;;11.10;99.90;;;;;;4917540;29;20994;-84
2022/06/17 10:38:05;;;;;;;14.57;4.20;;;11.00;99.90;;;;;;4920783;29;20437;-85
2022/06/17 10:40:36;;;;;;;12.82;3.70;;;10.90;99.90;;;;;;4994824;28;20883;-86
2022/06/17 10:43:07;;;;;;;9.02;3.53;;;10.80;99.90;;;;;;4995440;28;20433;-86
2022/06/17 10:45:35;;;;;;;6.95;2.40;;;10.80;99.90;;;;;;5048889;28;20381;-84
2022/06/17 10:48:26;;;;;;;5.80;2.20;;;10.90;99.90;;;;;;5070441;28;20382;-86
2022/06/17 10:50:53;;;;;;;8.25;2.67;;;10.90;99.90;;;;;;5070466;28;20366;-85
2022/06/17 10:53:28;;;;;;;8.00;2.63;;;10.90;99.90;;;;;;5064849;28;20390;-84
2022/06/17 10:56:02;;;;;;;14.40;3.20;;;10.80;99.90;;;;;;5070149;28;20428;-85
2022/06/17 10:58:33;;;;;;;16.48;3.28;;;10.80;99.90;;;;;;5070073;28;20394;-86
2022/06/17 11:01:11;;;;;;;9.75;3.30;;;10.80;99.90;;;;;;5063913;28;20765;-85
2022/06/17 11:03:41;;;;;;;15.48;3.58;;;10.70;99.90;;;;;;5080536;28;20420;-86
2022/06/17 11:06:19;;;;;;;22.50;5.00;;;10.70;99.90;;;;;;5090026;28;20383;-84
2022/06/17 11:08:55;;;;;;;20.17;4.90;;;10.60;99.90;;;;;;5081102;28;20383;-85
2022/06/17 11:14:36;;;;;;;24.08;7.15;;;10.40;99.90;;;;;;5077281;28;20440;-87
2022/06/17 11:17:20;;;;;;;14.15;5.55;;;10.40;99.90;;;;;;5062513;28;20893;-86
2022/06/17 11:19:53;;;;;;;13.18;4.60;;;10.30;99.90;;;;;;5078024;28;20405;-83
2022/06/17 11:22:30;;;;;;;9.55;4.20;;;10.40;99.90;;;;;;5082410;28;20370;-84
2022/06/17 11:25:04;;;;;;;19.48;4.65;;;10.50;99.90;;;;;;5078557;28;20578;-85
2022/06/17 11:27:42;;;;;;;15.57;4.32;;;10.70;99.90;;;;;;5075591;28;20825;-85
2022/06/17 11:30:23;;;;;;;24.73;4.57;;;10.80;99.90;;;;;;5089752;28;20432;-85
2022/06/17 11:32:52;;;;;;;24.10;5.20;;;10.70;99.90;;;;;;5067938;28;20387;-84
2022/06/17 11:35:39;;;;;;;16.25;6.22;;;10.60;99.90;;;;;;5089507;28;20376;-85
2022/06/17 11:38:13;;;;;;;7.27;4.47;;;10.40;99.90;;;;;;5063396;28;20757;-86
2022/06/17 11:41:00;;;;;;;9.35;4.13;;;10.40;99.90;;;;;;5075173;28;20879;-86
2022/06/17 11:43:39;;;;;;;9.48;4.80;;;10.30;99.90;;;;;;5089350;28;20376;-86
2022/06/17 11:46:25;;;;;;;7.67;4.50;;;10.30;99.90;;;;;;5083575;28;20374;-87
2022/06/17 11:49:09;;;;;;;8.07;4.13;;;10.30;99.90;;;;;;5081848;28;20418;-87
2022/06/17 11:51:40;;;;;;;12.10;4.03;;;10.30;99.90;;;;;;5089595;28;20369;-86
2022/06/17 11:54:32;;;;;;;11.33;3.60;;;10.30;99.90;;;;;;5090000;28;20391;-85
2022/06/17 11:57:13;;;;;;;19.52;3.70;;;10.30;99.90;;;;;;5089303;28;20375;-86
2022/06/17 11:59:47;;;;;;;12.05;3.38;;;10.40;99.90;;;;;;5083112;28;20757;-84
2022/06/17 12:02:15;;;;;;;13.18;4.00;;;10.60;99.90;;;;;;5079509;28;20376;-86
2022/06/17 12:04:49;;;;;;;7.60;4.60;;;10.70;99.90;;;;;;5090164;28;20405;-86
2022/06/17 12:07:28;;;;;;;9.93;4.70;;;10.70;99.90;;;;;;5089687;28;20372;-86
2022/06/17 12:10:09;;;;;;;9.80;5.07;;;10.70;99.90;;;;;;5089298;28;20457;-86
2022/06/17 12:12:37;;;;;;;14.52;6.70;;;10.80;99.90;;;;;;5089334;28;20441;-87
2022/06/17 12:15:21;;;;;;;18.73;7.15;;;10.70;99.90;;;;;;5079509;28;20413;-86
2022/06/17 12:17:49;;;;;;;21.17;6.00;;;10.60;99.90;;;;;;5081692;28;20408;-85
2022/06/17 12:20:20;;;;;;;11.82;5.20;;;10.50;99.90;;;;;;5087354;28;20369;-86
2022/06/17 12:23:03;;;;;;;8.40;5.15;;;10.50;99.90;;;;;;5076873;28;20816;-86
2022/06/17 12:25:52;;;;;;;6.82;5.03;;;10.50;99.90;;;;;;5051897;28;20910;-86
2022/06/17 12:28:44;;;;;;;9.18;5.05;;;10.40;99.90;;;;;;5079290;28;20372;-86
2022/06/17 12:31:46;;;;;;;9.35;4.47;;;10.40;99.90;;;;;;5088363;28;20360;-86
2022/06/17 12:34:45;;;;;;;10.90;5.72;;;10.30;99.90;;;;;;5088203;28;20403;-86
2022/06/17 12:37:13;;;;;;;8.45;3.60;;;10.20;99.90;;;;;;5080680;28;20451;-87
2022/06/17 12:39:52;;;;;;;8.00;3.83;;;10.20;99.90;;;;;;5069576;28;20425;-86
2022/06/17 12:42:45;;;;;;;6.50;2.90;;;10.10;99.90;;;;;;5069868;28;20777;-86
2022/06/17 12:45:44;;;;;;;10.63;3.00;;;10.10;99.90;;;;;;5005568;28;20483;-84
2022/06/17 12:48:22;;;;;;;4.72;3.00;;;10.30;99.90;;;;;;4942834;28;20953;-85
2022/06/17 12:53:58;;;;;;;8.38;3.50;;;10.30;99.90;;;;;;4967334;28;20433;-84
2022/06/17 12:56:53;;;;;;;15.25;3.80;;;10.30;99.90;;;;;;4962213;28;20444;-85
2022/06/17 12:59:51;;;;;;;13.10;3.90;;;10.30;99.90;;;;;;4966521;28;20403;-85
2022/06/17 13:02:43;;;;;;;10.05;3.90;;;10.40;99.90;;;;;;4966620;28;20378;-85
2022/06/17 13:05:25;;;;;;;13.60;3.95;;;10.40;99.90;;;;;;4964694;28;20414;-86
2022/06/17 13:08:14;;;;;;;13.95;4.28;;;10.40;99.90;;;;;;4966665;28;20383;-84
2022/06/17 13:11:01;;;;;;;11.00;3.30;;;10.50;99.90;;;;;;4966303;28;20481;-86
2022/06/17 13:13:43;;;;;;;8.35;3.33;;;10.40;99.90;;;;;;4966335;28;21257;-86
2022/06/17 13:16:41;;;;;;;5.65;3.60;;;10.30;99.90;;;;;;4959837;28;20497;-86
2022/06/17 13:19:33;;;;;;;9.82;4.22;;;10.10;99.90;;;;;;4956196;28;20417;-86
2022/06/17 13:22:22;;;;;;;9.95;4.72;;;9.90;99.90;;;;;;4987153;28;20383;-85
2022/06/17 13:25:00;;;;;;;11.50;5.10;;;9.70;99.90;;;;;;5077973;28;20783;-86
2022/06/17 13:27:34;;;;;;;12.57;5.05;;;9.50;99.90;;;;;;5073074;28;20372;-86
2022/06/17 13:30:10;;;;;;;12.82;6.95;;;9.30;99.90;;;;;;5068939;28;20430;-85
2022/06/17 13:32:43;;;;;;;10.77;6.05;;;9.20;99.90;;;;;;5086860;28;20815;-85
2022/06/17 13:35:21;;;;;;;15.73;6.97;;;9.10;99.90;;;;;;5087204;28;20380;-85
2022/06/17 13:38:47;;;;;;;11.57;5.63;;;9.00;99.90;;;;;;5079262;28;20392;-85
2022/06/17 13:41:30;;;;;;;10.93;5.78;;;8.80;99.90;;;;;;4965992;28;20451;-87
2022/06/17 13:44:25;;;;;;;9.98;5.70;;;8.70;99.90;;;;;;4956003;28;20504;-86
2022/06/17 13:47:15;;;;;;;8.82;5.32;;;8.60;99.90;;;;;;4966160;28;20385;-85